Time;durP1;ratioP1;P1;durP2;ratioP2;P2;SDS_P1;SDS_P2;PMS_P1;PMS_P2;Temp;Humidity;BMP_temperature;BMP_pressure;BME280_temperature;BME280_humidity;BME280_pressure;Samples;Min_cycle;Max_cycle;Signal;HPM_P1;HPM_P2
2024/04/23 00:01:32;;;;;;;1.98;1.77;;;15.60;55.10;;;;;;5452231;26;20224;-66
2024/04/23 00:03:57;;;;;;;1.60;1.50;;;15.60;55.20;;;;;;5451097;26;20262;-66
2024/04/23 00:06:23;;;;;;;1.40;1.30;;;15.60;55.10;;;;;;5452205;26;20223;-65
2024/04/23 00:08:48;;;;;;;2.60;1.83;;;15.50;55.10;;;;;;5451819;26;20223;-64
2024/04/23 00:11:14;;;;;;;1.40;1.30;;;15.50;55.20;;;;;;5451419;26;20223;-64
2024/04/23 00:13:39;;;;;;;1.75;1.63;;;15.50;55.10;;;;;;5452122;26;20649;-65
2024/04/23 00:16:05;;;;;;;1.50;1.40;;;15.50;55.10;;;;;;5452103;26;20219;-65
2024/04/23 00:18:31;;;;;;;1.42;1.33;;;15.50;55.20;;;;;;5451173;26;20284;-65
2024/04/23 00:20:56;;;;;;;1.50;1.40;;;15.50;55.80;;;;;;5451829;26;20258;-65
2024/04/23 00:23:22;;;;;;;1.50;1.42;;;15.50;55.30;;;;;;5451852;26;20697;-65
2024/04/23 00:25:48;;;;;;;1.50;1.38;;;15.50;55.20;;;;;;5450764;26;20313;-64
2024/04/23 00:28:13;;;;;;;1.70;1.50;;;15.50;55.40;;;;;;5451924;26;20223;-64
2024/04/23 00:30:39;;;;;;;1.50;1.40;;;15.40;55.30;;;;;;5451152;26;20223;-64
2024/04/23 00:33:06;;;;;;;1.80;1.70;;;15.40;55.50;;;;;;5458776;26;20223;-64
2024/04/23 00:35:32;;;;;;;1.70;1.55;;;15.50;55.50;;;;;;5459567;26;20681;-64
2024/04/23 00:37:57;;;;;;;2.08;1.23;;;15.40;55.40;;;;;;5458292;26;20302;-64
2024/04/23 00:40:23;;;;;;;1.50;1.40;;;15.40;55.40;;;;;;5459651;26;20223;-65
2024/04/23 00:42:48;;;;;;;1.45;1.35;;;15.40;55.40;;;;;;5458990;26;20258;-64
2024/04/23 00:45:14;;;;;;;1.63;1.38;;;15.40;55.40;;;;;;5458570;26;20300;-65
2024/04/23 00:47:39;;;;;;;1.45;1.35;;;15.40;55.50;;;;;;5457282;26;20277;-64
2024/04/23 00:50:05;;;;;;;1.70;1.60;;;15.40;55.50;;;;;;5459163;26;20223;-65
2024/04/23 00:52:31;;;;;;;1.58;1.48;;;15.40;55.40;;;;;;5456611;26;20590;-64
2024/04/23 00:54:56;;;;;;;2.00;1.52;;;15.40;55.50;;;;;;5458775;26;20219;-64
2024/04/23 00:57:22;;;;;;;1.27;1.27;;;15.40;55.40;;;;;;5427360;26;20253;-64
2024/04/23 00:59:47;;;;;;;1.70;1.60;;;15.40;55.50;;;;;;5457845;26;20270;-64
2024/04/23 01:02:13;;;;;;;1.50;1.40;;;15.40;55.40;;;;;;5458958;26;20257;-65
2024/04/23 01:04:38;;;;;;;1.70;1.60;;;15.40;55.50;;;;;;5457248;26;20223;-64
2024/04/23 01:07:07;;;;;;;1.50;1.40;;;15.40;55.50;;;;;;5426089;26;20215;-64
2024/04/23 01:09:33;;;;;;;1.58;1.48;;;15.40;56.20;;;;;;5458833;26;20223;-64
2024/04/23 01:11:58;;;;;;;1.60;1.30;;;15.40;55.50;;;;;;5458469;26;20329;-63
2024/04/23 01:14:24;;;;;;;1.35;1.25;;;15.40;55.70;;;;;;5456291;26;20247;-64
2024/04/23 01:16:49;;;;;;;1.75;1.65;;;15.30;55.40;;;;;;5458358;26;20220;-64
2024/04/23 01:19:34;;;;;;;1.60;1.50;;;15.30;55.50;;;;;;5427035;26;20290;-65
2024/04/23 01:22:10;;;;;;;1.77;1.38;;;15.30;55.60;;;;;;5455708;26;20223;-64
2024/04/23 01:24:50;;;;;;;1.50;1.40;;;15.30;55.70;;;;;;5457098;26;20227;-63
2024/04/23 01:27:15;;;;;;;1.52;1.42;;;15.30;55.80;;;;;;5456311;26;20319;-63
2024/04/23 01:29:40;;;;;;;1.50;1.40;;;15.30;55.80;;;;;;5456586;26;20643;-63
2024/04/23 01:32:06;;;;;;;1.40;1.30;;;15.30;55.80;;;;;;5458390;26;20694;-64
2024/04/23 01:34:33;;;;;;;1.65;1.55;;;15.30;55.70;;;;;;5456001;26;20319;-64
2024/04/23 01:36:58;;;;;;;1.38;1.27;;;15.30;55.70;;;;;;5426621;26;20266;-64
2024/04/23 01:39:24;;;;;;;1.90;1.80;;;15.30;55.70;;;;;;5456567;26;20568;-64
2024/04/23 01:41:50;;;;;;;1.40;1.30;;;15.20;55.70;;;;;;5455333;26;20220;-65
2024/04/23 01:44:15;;;;;;;1.30;1.20;;;15.30;55.70;;;;;;5451851;26;20228;-65
2024/04/23 01:46:41;;;;;;;1.60;1.50;;;15.30;55.80;;;;;;5452173;26;20224;-65
2024/04/23 01:49:06;;;;;;;1.55;1.45;;;15.30;55.90;;;;;;5421835;26;20227;-64
2024/04/23 01:51:32;;;;;;;1.60;1.50;;;15.20;55.70;;;;;;5452531;26;20224;-65
2024/04/23 01:53:57;;;;;;;1.50;1.40;;;15.20;55.70;;;;;;5422220;26;20219;-65
2024/04/23 01:56:23;;;;;;;1.83;1.73;;;15.20;55.80;;;;;;5453405;26;20223;-64
2024/04/23 01:58:48;;;;;;;1.40;1.30;;;15.20;55.80;;;;;;5453682;26;20220;-65
2024/04/23 02:01:14;;;;;;;1.88;1.60;;;15.20;55.70;;;;;;5454111;26;20227;-65
2024/04/23 02:03:39;;;;;;;1.70;1.60;;;15.20;55.70;;;;;;5421139;26;20223;-65
2024/04/23 02:06:05;;;;;;;1.70;1.60;;;15.20;55.80;;;;;;5452248;26;20227;-65
2024/04/23 02:08:30;;;;;;;1.60;1.50;;;15.20;55.80;;;;;;5452341;26;20557;-63
2024/04/23 02:10:56;;;;;;;1.50;1.40;;;15.20;55.80;;;;;;5451010;26;20742;-64
2024/04/23 02:13:21;;;;;;;1.52;1.42;;;15.20;55.80;;;;;;5452269;26;20732;-64
2024/04/23 02:15:47;;;;;;;1.52;1.42;;;15.20;55.80;;;;;;5453482;26;20262;-65
2024/04/23 02:18:12;;;;;;;1.67;1.58;;;15.10;55.80;;;;;;5452823;26;20282;-65
2024/04/23 02:20:38;;;;;;;2.00;1.90;;;15.20;56.30;;;;;;5453993;26;20258;-64
2024/04/23 02:23:03;;;;;;;1.67;1.58;;;15.10;55.70;;;;;;5453346;26;20257;-64
2024/04/23 02:25:29;;;;;;;1.70;1.60;;;15.10;55.70;;;;;;5452752;26;20220;-64
2024/04/23 02:27:54;;;;;;;1.80;1.70;;;15.10;55.80;;;;;;5453438;26;20227;-64
2024/04/23 02:30:26;;;;;;;1.60;1.50;;;15.10;55.80;;;;;;5452835;26;20215;-64
2024/04/23 02:32:51;;;;;;;2.22;1.80;;;15.10;55.80;;;;;;5453189;26;20224;-64
2024/04/23 02:35:17;;;;;;;2.00;1.67;;;15.10;55.80;;;;;;5453614;26;20262;-65
2024/04/23 02:37:42;;;;;;;1.60;1.50;;;15.10;55.90;;;;;;5452309;26;20223;-65
2024/04/23 02:40:08;;;;;;;3.28;1.90;;;15.10;55.90;;;;;;5453540;26;20223;-65
2024/04/23 02:42:34;;;;;;;1.90;1.80;;;15.10;55.90;;;;;;5453454;26;20689;-65
2024/04/23 02:45:00;;;;;;;2.00;1.90;;;15.10;55.90;;;;;;5452236;26;20262;-65
2024/04/23 02:47:25;;;;;;;1.60;1.50;;;15.10;55.80;;;;;;5453452;26;20224;-66
2024/04/23 02:49:51;;;;;;;1.80;1.70;;;15.10;55.80;;;;;;5453023;26;20227;-65
2024/04/23 02:52:16;;;;;;;1.90;1.80;;;15.10;55.90;;;;;;5452599;26;20223;-65
2024/04/23 02:54:42;;;;;;;1.77;1.67;;;15.10;55.80;;;;;;5452522;26;20223;-65
2024/04/23 02:57:07;;;;;;;1.95;1.80;;;15.00;55.80;;;;;;5453320;26;20234;-65
2024/04/23 02:59:33;;;;;;;1.80;1.70;;;15.00;55.80;;;;;;5452413;26;20223;-65
2024/04/23 03:02:05;;;;;;;1.65;1.55;;;15.00;55.80;;;;;;5452815;26;20625;-65
2024/04/23 03:04:31;;;;;;;1.55;1.50;;;15.00;55.80;;;;;;5453199;26;20714;-65
2024/04/23 03:06:56;;;;;;;1.80;1.70;;;15.00;55.90;;;;;;5452119;26;20223;-65
2024/04/23 03:09:22;;;;;;;1.58;1.48;;;15.00;55.90;;;;;;5453302;26;20219;-64
2024/04/23 03:11:54;;;;;;;1.83;1.73;;;15.00;55.80;;;;;;5452796;26;20224;-64
2024/04/23 03:14:20;;;;;;;1.83;1.70;;;15.00;55.90;;;;;;5452171;26;20831;-65
2024/04/23 03:16:45;;;;;;;1.90;1.80;;;15.00;55.90;;;;;;5452670;26;20231;-65
2024/04/23 03:19:11;;;;;;;1.85;1.75;;;15.00;55.90;;;;;;5452972;26;20282;-65
2024/04/23 03:21:56;;;;;;;1.88;1.77;;;15.00;55.90;;;;;;5452011;26;20223;-65
2024/04/23 03:24:21;;;;;;;2.22;1.45;;;15.00;55.90;;;;;;5452973;26;20262;-64
2024/04/23 03:26:47;;;;;;;2.00;1.90;;;15.00;55.90;;;;;;5451542;26;20551;-64
2024/04/23 03:29:12;;;;;;;2.00;1.90;;;15.00;55.90;;;;;;5452915;26;20573;-64
2024/04/23 03:31:38;;;;;;;2.10;1.92;;;15.00;55.90;;;;;;5452894;26;20286;-65
2024/04/23 03:34:03;;;;;;;2.00;1.90;;;15.00;55.90;;;;;;5451504;26;20702;-65
2024/04/23 03:36:29;;;;;;;1.80;1.70;;;14.90;55.90;;;;;;5452806;26;20220;-65
2024/04/23 03:38:54;;;;;;;1.75;1.65;;;14.90;55.90;;;;;;5452316;26;20327;-66
2024/04/23 03:41:20;;;;;;;1.92;1.77;;;14.90;56.00;;;;;;5451768;26;20231;-65
2024/04/23 03:43:45;;;;;;;1.50;1.40;;;14.90;56.00;;;;;;5452213;26;20227;-66
2024/04/23 03:46:11;;;;;;;2.28;2.08;;;14.90;56.00;;;;;;5452584;26;20227;-65
2024/04/23 03:48:37;;;;;;;1.70;1.60;;;14.90;55.90;;;;;;5451865;26;20220;-65
2024/04/23 03:51:02;;;;;;;1.70;1.60;;;14.90;56.10;;;;;;5452112;26;20266;-65
2024/04/23 03:53:28;;;;;;;2.50;1.90;;;14.90;56.00;;;;;;5452456;26;20219;-65
2024/04/23 03:55:53;;;;;;;2.38;1.92;;;14.90;56.10;;;;;;5451168;26;20310;-66
2024/04/23 03:58:19;;;;;;;1.77;1.67;;;14.90;56.00;;;;;;5452464;26;20215;-65
2024/04/23 04:00:44;;;;;;;1.60;1.50;;;14.90;56.00;;;;;;5451987;26;20215;-65
2024/04/23 04:06:06;;;;;;;2.45;2.13;;;14.90;56.10;;;;;;5451057;26;20261;-65
2024/04/23 04:08:35;;;;;;;2.35;1.90;;;14.90;56.00;;;;;;5452250;26;20278;-65
2024/04/23 04:11:01;;;;;;;1.70;1.60;;;14.80;56.00;;;;;;5451039;26;20279;-64
2024/04/23 04:13:26;;;;;;;1.80;1.70;;;14.80;56.60;;;;;;5452212;26;20258;-64
2024/04/23 04:15:52;;;;;;;2.00;1.90;;;14.80;56.00;;;;;;5450866;26;20219;-64
2024/04/23 04:18:18;;;;;;;1.88;1.77;;;14.80;56.00;;;;;;5451935;26;20312;-64
2024/04/23 04:20:43;;;;;;;1.92;1.83;;;14.80;56.10;;;;;;5451026;26;20587;-64
2024/04/23 04:23:09;;;;;;;2.25;1.60;;;14.80;56.10;;;;;;5450971;26;20678;-64
2024/04/23 04:25:34;;;;;;;2.05;1.77;;;14.80;56.10;;;;;;5451913;26;20254;-64
2024/04/23 04:28:00;;;;;;;1.60;1.50;;;14.80;56.10;;;;;;5451432;26;20211;-64
2024/04/23 04:30:26;;;;;;;2.33;2.03;;;14.80;56.10;;;;;;5450553;26;20323;-64
2024/04/23 04:32:51;;;;;;;1.83;1.73;;;14.80;56.10;;;;;;5451361;26;20223;-64
2024/04/23 04:35:17;;;;;;;2.30;2.10;;;14.80;56.00;;;;;;5451896;26;20670;-64
2024/04/23 04:37:42;;;;;;;1.73;1.63;;;14.80;56.00;;;;;;5450339;26;20670;-65
2024/04/23 04:40:08;;;;;;;1.70;1.60;;;14.80;56.10;;;;;;5451799;26;20733;-66
2024/04/23 04:42:33;;;;;;;1.60;1.50;;;14.80;56.00;;;;;;5451534;26;20269;-64
2024/04/23 04:45:02;;;;;;;1.52;1.42;;;14.90;55.80;;;;;;5450378;26;20219;-65
2024/04/23 04:47:28;;;;;;;1.85;1.75;;;15.20;55.90;;;;;;5451533;26;20294;-65
2024/04/23 04:49:53;;;;;;;1.50;1.40;;;15.00;55.70;;;;;;5451072;26;20235;-65
2024/04/23 04:52:19;;;;;;;1.60;1.50;;;15.10;55.70;;;;;;5450670;26;20320;-65
2024/04/23 04:54:44;;;;;;;1.60;1.50;;;15.20;55.60;;;;;;5451135;26;20215;-64
2024/04/23 04:57:10;;;;;;;1.83;1.73;;;15.20;55.50;;;;;;5451414;26;20257;-65
2024/04/23 04:59:36;;;;;;;1.90;1.80;;;15.40;55.50;;;;;;5450504;26;20258;-65
2024/04/23 05:02:01;;;;;;;1.50;1.40;;;15.40;55.30;;;;;;5450892;26;20689;-65
2024/04/23 05:04:29;;;;;;;1.80;1.67;;;15.60;55.30;;;;;;5451307;26;20219;-65
2024/04/23 05:06:55;;;;;;;1.73;1.63;;;15.60;55.20;;;;;;5450060;26;20333;-64
2024/04/23 05:09:20;;;;;;;1.30;1.30;;;15.70;55.00;;;;;;5451308;26;20231;-64
2024/04/23 05:11:49;;;;;;;2.22;1.55;;;15.80;54.90;;;;;;5450784;26;20220;-65
2024/04/23 05:14:15;;;;;;;1.45;1.35;;;15.80;54.80;;;;;;5450264;26;20223;-65
2024/04/23 05:16:43;;;;;;;1.70;1.60;;;15.90;54.70;;;;;;5450709;26;20224;-65
2024/04/23 05:19:09;;;;;;;1.73;1.63;;;16.00;54.60;;;;;;5453336;26;20236;-65
2024/04/23 05:21:34;;;;;;;1.50;1.40;;;16.00;54.50;;;;;;5454586;26;20265;-65
2024/04/23 05:24:00;;;;;;;1.60;1.50;;;16.00;54.40;;;;;;5454157;26;20675;-64
2024/04/23 05:26:25;;;;;;;1.73;1.63;;;16.10;54.40;;;;;;5453704;26;20231;-64
2024/04/23 05:28:51;;;;;;;1.30;1.20;;;16.10;54.40;;;;;;5454123;26;20235;-64
2024/04/23 05:34:01;;;;;;;1.45;1.35;;;16.10;54.30;;;;;;5453267;26;20259;-64
2024/04/23 05:36:27;;;;;;;1.42;1.33;;;16.20;54.60;;;;;;5454454;26;20220;-65
2024/04/23 05:38:53;;;;;;;2.35;1.65;;;16.20;54.30;;;;;;5454036;26;20220;-65
2024/04/23 05:41:18;;;;;;;1.50;1.40;;;16.30;54.30;;;;;;5453594;26;20275;-65
2024/04/23 05:43:44;;;;;;;1.10;1.10;;;16.40;54.20;;;;;;5453867;26;20219;-65
2024/04/23 05:46:10;;;;;;;1.40;1.30;;;16.50;54.00;;;;;;5454262;26;20219;-65
2024/04/23 05:49:13;;;;;;;1.50;1.40;;;16.70;53.90;;;;;;5453171;26;20227;-64
2024/04/23 05:52:16;;;;;;;1.50;1.40;;;16.90;53.70;;;;;;5454077;26;20231;-65
2024/04/23 05:55:19;;;;;;;1.50;1.40;;;17.00;53.50;;;;;;5452973;26;20234;-65
2024/04/23 05:57:45;;;;;;;1.40;1.30;;;17.10;53.30;;;;;;5453641;26;20590;-65
2024/04/23 06:00:11;;;;;;;2.38;1.48;;;17.10;53.30;;;;;;5454225;26;20227;-65
2024/04/23 06:02:37;;;;;;;1.42;1.33;;;17.20;53.20;;;;;;5453398;26;20664;-65
2024/04/23 06:05:02;;;;;;;1.40;1.38;;;17.30;53.00;;;;;;5453691;26;20219;-65
2024/04/23 06:07:28;;;;;;;1.20;1.20;;;17.40;52.90;;;;;;5454064;26;20216;-64
2024/04/23 06:09:53;;;;;;;1.50;1.40;;;17.30;52.90;;;;;;5452699;26;20671;-64
2024/04/23 06:12:19;;;;;;;1.48;1.38;;;17.40;52.80;;;;;;5454001;26;20327;-64
2024/04/23 06:14:44;;;;;;;1.08;1.08;;;17.40;52.70;;;;;;5453550;26;20261;-64
2024/04/23 06:17:17;;;;;;;1.50;1.35;;;17.50;52.80;;;;;;5452950;26;20262;-66
2024/04/23 06:19:48;;;;;;;1.35;1.25;;;17.40;52.70;;;;;;5453377;26;20223;-65
2024/04/23 06:22:16;;;;;;;1.70;1.60;;;17.50;52.80;;;;;;5453319;26;20834;-65
2024/04/23 06:24:41;;;;;;;1.85;1.30;;;17.50;52.80;;;;;;5453178;26;20705;-64
2024/04/23 06:27:09;;;;;;;1.10;1.10;;;17.50;52.80;;;;;;5453689;26;20323;-64
2024/04/23 06:29:35;;;;;;;1.38;1.27;;;17.60;52.80;;;;;;5451955;26;20328;-64
2024/04/23 06:32:00;;;;;;;1.33;1.23;;;17.60;52.80;;;;;;5453229;26;20702;-65
2024/04/23 06:34:26;;;;;;;1.35;1.25;;;17.60;52.80;;;;;;5453598;26;20227;-65
2024/04/23 06:36:51;;;;;;;1.83;1.25;;;17.60;52.80;;;;;;5452347;26;20224;-65
2024/04/23 06:39:17;;;;;;;1.25;1.20;;;17.60;52.80;;;;;;5453578;26;20693;-65
2024/04/23 06:41:42;;;;;;;1.08;1.00;;;17.50;52.90;;;;;;5453033;26;20270;-65
2024/04/23 06:44:08;;;;;;;1.48;1.38;;;17.50;53.00;;;;;;5452791;26;20263;-65
2024/04/23 06:46:34;;;;;;;1.00;1.00;;;17.60;53.10;;;;;;5451165;26;20305;-65
2024/04/23 06:48:59;;;;;;;1.50;1.40;;;17.50;52.90;;;;;;5452162;26;20235;-65
2024/04/23 06:51:25;;;;;;;1.40;1.30;;;17.60;52.90;;;;;;5450557;26;20232;-64
2024/04/23 06:53:50;;;;;;;1.20;1.10;;;17.70;52.70;;;;;;5452819;26;20239;-64
2024/04/23 06:56:16;;;;;;;1.20;1.20;;;17.70;52.70;;;;;;5452560;26;20270;-65
2024/04/23 06:58:42;;;;;;;1.52;1.42;;;17.70;52.70;;;;;;5452102;26;20262;-65
2024/04/23 07:01:08;;;;;;;1.58;1.48;;;17.70;52.60;;;;;;5452828;26;20220;-65
2024/04/23 07:03:34;;;;;;;1.60;1.50;;;17.70;52.50;;;;;;5452896;26;20275;-64
2024/04/23 07:05:59;;;;;;;2.25;1.40;;;17.70;52.40;;;;;;5451783;26;20270;-64
2024/04/23 07:08:25;;;;;;;1.45;1.45;;;17.80;52.50;;;;;;5453050;26;20261;-64
2024/04/23 07:10:55;;;;;;;1.83;1.73;;;17.70;52.40;;;;;;5428633;26;20266;-64
2024/04/23 07:13:20;;;;;;;1.60;1.50;;;17.80;52.50;;;;;;5416175;26;20628;-65
2024/04/23 07:15:46;;;;;;;1.58;1.48;;;17.80;53.00;;;;;;5416637;26;20302;-65
2024/04/23 07:18:12;;;;;;;1.63;1.52;;;17.80;52.40;;;;;;5403553;26;20316;-65
2024/04/23 07:20:38;;;;;;;1.55;1.45;;;17.80;52.40;;;;;;5380567;26;20237;-65
2024/04/23 07:23:04;;;;;;;1.58;1.35;;;17.80;52.40;;;;;;5380979;26;20226;-65
2024/04/23 07:25:30;;;;;;;1.60;1.50;;;17.80;52.50;;;;;;5381374;26;20323;-64
2024/04/23 07:27:55;;;;;;;1.38;1.27;;;17.70;52.50;;;;;;5380123;26;20217;-64
2024/04/23 07:30:26;;;;;;;1.48;1.38;;;17.60;52.50;;;;;;5381347;26;20700;-64
2024/04/23 07:32:55;;;;;;;1.40;1.30;;;17.60;52.80;;;;;;5380043;26;20263;-65
2024/04/23 07:35:24;;;;;;;1.30;1.20;;;17.50;52.80;;;;;;5381345;26;20298;-65
2024/04/23 07:37:49;;;;;;;1.40;1.30;;;17.50;52.80;;;;;;5380789;26;20221;-65
2024/04/23 07:40:15;;;;;;;3.10;1.33;;;17.50;53.10;;;;;;5380250;26;20222;-65
2024/04/23 07:42:40;;;;;;;2.53;1.60;;;17.40;53.10;;;;;;5379380;26;20590;-65
2024/04/23 07:45:06;;;;;;;1.30;1.20;;;17.40;53.20;;;;;;5381055;26;20338;-66
2024/04/23 07:47:35;;;;;;;1.30;1.20;;;17.30;53.20;;;;;;5380311;26;20233;-65
2024/04/23 07:50:01;;;;;;;1.50;1.40;;;17.30;53.40;;;;;;5380742;26;20877;-65
2024/04/23 07:52:27;;;;;;;1.55;1.30;;;17.20;53.40;;;;;;5380964;26;20265;-65
2024/04/23 07:54:53;;;;;;;1.42;1.33;;;17.20;53.50;;;;;;5379854;26;20722;-65
2024/04/23 07:57:18;;;;;;;1.80;1.20;;;17.20;53.60;;;;;;5380996;26;20221;-65
2024/04/23 07:59:44;;;;;;;1.38;1.27;;;17.20;53.70;;;;;;5380531;26;20221;-65
2024/04/23 08:02:09;;;;;;;1.23;1.20;;;17.20;53.80;;;;;;5380050;26;20221;-66
2024/04/23 08:04:35;;;;;;;1.95;1.45;;;17.20;53.80;;;;;;5380962;26;20225;-65
2024/04/23 08:07:01;;;;;;;1.48;1.38;;;17.20;53.80;;;;;;5380472;26;20252;-65
2024/04/23 08:09:26;;;;;;;1.90;1.75;;;17.20;53.80;;;;;;5380035;26;20218;-64
2024/04/23 08:11:52;;;;;;;1.40;1.30;;;17.20;53.80;;;;;;5380342;26;20268;-64
2024/04/23 08:14:17;;;;;;;1.30;1.20;;;17.20;53.80;;;;;;5380662;26;20221;-65
2024/04/23 08:16:43;;;;;;;1.45;1.35;;;17.20;53.80;;;;;;5379524;26;20222;-65
2024/04/23 08:19:08;;;;;;;1.52;1.42;;;17.20;53.80;;;;;;5380559;26;20237;-66
2024/04/23 08:21:36;;;;;;;1.65;1.55;;;17.20;53.80;;;;;;5380613;26;20256;-65
2024/04/23 08:24:03;;;;;;;1.55;1.45;;;17.10;53.80;;;;;;5379276;26;20296;-64
2024/04/23 08:26:28;;;;;;;1.48;1.40;;;17.20;53.90;;;;;;5380611;26;20221;-64
2024/04/23 08:28:54;;;;;;;1.83;1.40;;;17.20;53.90;;;;;;5379259;26;20281;-64
2024/04/23 08:31:20;;;;;;;1.52;1.25;;;17.20;53.90;;;;;;5380548;26;20295;-64
2024/04/23 08:33:45;;;;;;;1.60;1.50;;;17.20;53.90;;;;;;5380147;26;20257;-65
2024/04/23 08:36:11;;;;;;;1.67;1.58;;;17.30;53.90;;;;;;5379621;26;20213;-65
2024/04/23 08:38:36;;;;;;;1.40;1.30;;;17.30;53.80;;;;;;5380401;26;20630;-65
2024/04/23 08:41:06;;;;;;;1.40;1.13;;;17.30;53.80;;;;;;5379947;26;20229;-65
2024/04/23 08:43:35;;;;;;;1.48;1.38;;;17.30;54.40;;;;;;5349387;26;20311;-65
2024/04/23 08:46:00;;;;;;;1.45;1.40;;;17.30;53.80;;;;;;5379840;26;20690;-66
2024/04/23 08:48:29;;;;;;;1.40;1.30;;;17.40;53.80;;;;;;5380192;26;20226;-65
2024/04/23 08:50:58;;;;;;;1.58;1.45;;;17.30;53.80;;;;;;5348292;26;20318;-65
2024/04/23 08:53:23;;;;;;;1.63;1.35;;;17.30;53.80;;;;;;5351207;26;20260;-65
2024/04/23 08:55:50;;;;;;;1.48;1.38;;;17.30;53.80;;;;;;5323442;26;20591;-65
2024/04/23 08:58:15;;;;;;;1.45;1.35;;;17.40;53.80;;;;;;5322960;26;20233;-65
2024/04/23 09:00:41;;;;;;;2.22;2.03;;;17.40;53.80;;;;;;5323533;26;20260;-65
2024/04/23 09:03:12;;;;;;;2.53;1.45;;;17.30;53.70;;;;;;5352733;26;20327;-65
2024/04/23 09:05:39;;;;;;;1.58;1.48;;;17.20;53.90;;;;;;5351908;26;20821;-65
2024/04/23 09:08:05;;;;;;;1.30;1.20;;;17.10;54.00;;;;;;5352672;26;20222;-65
2024/04/23 09:10:31;;;;;;;1.65;1.40;;;17.10;54.10;;;;;;5383009;26;20225;-64
2024/04/23 09:12:57;;;;;;;2.15;1.60;;;17.10;54.10;;;;;;5351250;26;20264;-65
2024/04/23 09:15:22;;;;;;;1.80;1.08;;;17.00;54.10;;;;;;5383339;26;20696;-65
2024/04/23 09:17:57;;;;;;;1.40;1.30;;;17.00;54.10;;;;;;5382246;26;20355;-65
2024/04/23 09:20:23;;;;;;;1.50;1.40;;;17.00;54.00;;;;;;5382282;26;20259;-65
2024/04/23 09:22:52;;;;;;;1.73;1.63;;;17.00;54.00;;;;;;5382439;26;20225;-65
2024/04/23 09:25:19;;;;;;;1.80;1.70;;;16.90;54.20;;;;;;5382162;26;20226;-64
2024/04/23 09:27:44;;;;;;;1.70;1.60;;;16.90;54.20;;;;;;5382327;26;20260;-64
2024/04/23 09:30:10;;;;;;;1.50;1.40;;;16.90;54.20;;;;;;5383000;26;20233;-64
2024/04/23 09:32:36;;;;;;;1.45;1.35;;;16.80;54.20;;;;;;5381554;26;20222;-65
2024/04/23 09:35:01;;;;;;;1.58;1.33;;;16.80;54.20;;;;;;5382588;26;20221;-65
2024/04/23 09:37:27;;;;;;;1.80;1.70;;;16.80;54.30;;;;;;5382814;26;20264;-65
2024/04/23 09:40:01;;;;;;;1.50;1.40;;;16.80;54.20;;;;;;5381517;26;20323;-65
2024/04/23 09:42:26;;;;;;;1.80;1.70;;;16.70;54.20;;;;;;5382841;26;20260;-65
2024/04/23 09:44:53;;;;;;;1.70;1.60;;;16.70;54.20;;;;;;5382319;26;20580;-69
2024/04/23 09:47:18;;;;;;;2.78;1.70;;;16.70;54.20;;;;;;5382044;26;20221;-64
2024/04/23 09:49:53;;;;;;;2.20;1.95;;;16.70;54.40;;;;;;5396612;26;20228;-64
2024/04/23 09:52:31;;;;;;;1.80;1.70;;;16.70;54.40;;;;;;5416828;26;20588;-65
2024/04/23 09:54:57;;;;;;;2.08;1.88;;;16.70;54.20;;;;;;5416943;26;20224;-65
2024/04/23 09:57:22;;;;;;;1.63;1.52;;;16.80;54.00;;;;;;5418000;26;20263;-65
2024/04/23 09:59:48;;;;;;;1.60;1.50;;;16.80;53.80;;;;;;5417695;26;20267;-65
2024/04/23 10:02:15;;;;;;;1.50;1.40;;;16.80;53.80;;;;;;5417163;26;20236;-65
2024/04/23 10:04:41;;;;;;;1.65;1.55;;;16.90;53.70;;;;;;5356180;26;20800;-65
2024/04/23 10:07:08;;;;;;;2.55;1.90;;;17.00;53.70;;;;;;5386738;26;20281;-65
2024/04/23 10:09:34;;;;;;;1.80;1.70;;;17.00;53.60;;;;;;5386152;26;20228;-64
2024/04/23 10:12:06;;;;;;;2.15;1.98;;;17.00;53.70;;;;;;5386266;26;20289;-65
2024/04/23 10:14:35;;;;;;;2.08;1.40;;;17.00;53.60;;;;;;5385623;26;20228;-64
2024/04/23 10:17:08;;;;;;;1.80;1.70;;;17.00;53.80;;;;;;5417424;26;20278;-65
2024/04/23 10:19:34;;;;;;;1.92;1.70;;;16.90;53.70;;;;;;5451599;26;20718;-64
2024/04/23 10:22:00;;;;;;;2.17;1.98;;;16.90;53.70;;;;;;5450846;26;20223;-65
2024/04/23 10:24:26;;;;;;;1.77;1.67;;;16.80;53.70;;;;;;5452065;26;20223;-64
2024/04/23 10:26:51;;;;;;;3.08;1.95;;;16.80;53.70;;;;;;5453320;26;20223;-63
2024/04/23 10:29:18;;;;;;;1.75;1.60;;;16.80;53.80;;;;;;5450932;26;20223;-64
2024/04/23 10:31:44;;;;;;;1.90;1.80;;;16.80;53.70;;;;;;5421325;26;20690;-64
2024/04/23 10:34:09;;;;;;;2.05;1.85;;;16.70;53.70;;;;;;5451905;26;20341;-65
2024/04/23 10:36:42;;;;;;;1.80;1.70;;;16.70;53.70;;;;;;5450913;26;20316;-65
2024/04/23 10:39:11;;;;;;;2.53;1.85;;;16.70;53.70;;;;;;5453395;26;20227;-65
2024/04/23 10:41:37;;;;;;;2.17;1.98;;;16.70;53.70;;;;;;5453438;26;20262;-66
2024/04/23 10:44:04;;;;;;;2.05;1.83;;;16.70;53.70;;;;;;5452141;26;20231;-65
2024/04/23 10:46:30;;;;;;;2.58;1.90;;;16.70;53.60;;;;;;5423011;26;20320;-65
2024/04/23 10:48:55;;;;;;;3.40;1.77;;;16.70;53.70;;;;;;5452975;26;20678;-65
2024/04/23 10:51:21;;;;;;;2.75;1.80;;;16.70;53.80;;;;;;5452328;26;20219;-66
2024/04/23 10:53:47;;;;;;;2.30;1.90;;;16.70;53.80;;;;;;5452965;26;20637;-65
2024/04/23 10:56:23;;;;;;;2.60;2.00;;;16.80;53.90;;;;;;5453215;26;20227;-66
2024/04/23 10:59:19;;;;;;;2.80;1.90;;;16.80;53.90;;;;;;5452068;26;20768;-65
2024/04/23 11:01:51;;;;;;;2.63;2.22;;;16.70;53.80;;;;;;5452191;26;20318;-65
2024/04/23 11:04:18;;;;;;;1.83;1.73;;;16.90;53.60;;;;;;5452406;26;20219;-65
2024/04/23 11:06:44;;;;;;;2.67;1.80;;;16.90;53.50;;;;;;5452770;26;20223;-65
2024/04/23 11:09:12;;;;;;;2.10;1.88;;;16.90;53.80;;;;;;5453170;26;21191;-65
2024/04/23 11:11:38;;;;;;;2.72;1.80;;;16.80;53.80;;;;;;5452252;26;20216;-65
2024/04/23 11:14:03;;;;;;;1.95;1.52;;;16.80;53.90;;;;;;5452698;26;20216;-66
2024/04/23 11:16:29;;;;;;;2.40;1.67;;;16.80;54.10;;;;;;5450597;26;20741;-64
2024/04/23 11:18:57;;;;;;;1.70;1.60;;;16.80;54.10;;;;;;5451419;26;20266;-64
2024/04/23 11:21:26;;;;;;;1.80;1.70;;;16.70;54.10;;;;;;5453048;26;20262;-65
2024/04/23 11:23:52;;;;;;;2.40;1.73;;;16.70;54.20;;;;;;5452298;26;20269;-64
2024/04/23 11:26:23;;;;;;;1.83;1.70;;;16.70;54.30;;;;;;5452012;26;20622;-65
2024/04/23 11:28:49;;;;;;;2.35;1.60;;;16.80;54.10;;;;;;5452551;26;20223;-65
2024/04/23 11:31:15;;;;;;;2.92;2.63;;;16.70;54.90;;;;;;5421427;26;20258;-67
2024/04/23 11:33:41;;;;;;;1.90;1.52;;;16.80;54.40;;;;;;5451504;26;20231;-67
2024/04/23 11:36:07;;;;;;;1.70;1.52;;;16.90;54.20;;;;;;5452773;26;20262;-66
2024/04/23 11:38:42;;;;;;;4.03;2.13;;;17.00;54.00;;;;;;5452617;26;20282;-69
2024/04/23 11:41:09;;;;;;;2.42;1.70;;;17.10;53.80;;;;;;5451831;26;20685;-70
2024/04/23 11:43:35;;;;;;;1.58;1.48;;;17.00;53.80;;;;;;5452389;26;20223;-69
2024/04/23 11:46:00;;;;;;;1.65;1.50;;;17.00;54.20;;;;;;5451440;26;20258;-70
2024/04/23 11:48:26;;;;;;;1.92;1.83;;;16.90;54.20;;;;;;5452452;26;20564;-65
2024/04/23 11:50:53;;;;;;;2.60;2.33;;;16.90;54.30;;;;;;5420440;26;20748;-66
2024/04/23 11:53:18;;;;;;;4.13;2.88;;;16.90;53.70;;;;;;5449931;26;20219;-65
2024/04/23 11:55:44;;;;;;;2.47;1.83;;;16.90;52.20;;;;;;5451363;26;20266;-65
2024/04/23 11:58:09;;;;;;;3.60;2.05;;;16.90;52.60;;;;;;5420873;26;20215;-66
2024/04/23 12:00:37;;;;;;;2.65;1.85;;;16.80;53.10;;;;;;5451523;26;20710;-65
2024/04/23 12:03:05;;;;;;;2.33;2.13;;;16.80;53.00;;;;;;5451802;26;20220;-66
2024/04/23 12:05:31;;;;;;;1.73;1.63;;;16.70;52.90;;;;;;5452175;26;20223;-65
2024/04/23 12:07:56;;;;;;;2.30;1.77;;;16.70;53.20;;;;;;5450987;26;20320;-64
2024/04/23 12:10:32;;;;;;;2.17;1.70;;;16.70;53.20;;;;;;5450466;26;20588;-64
2024/04/23 12:12:58;;;;;;;1.67;1.55;;;16.80;53.10;;;;;;5451858;26;20638;-66
2024/04/23 12:15:27;;;;;;;2.20;1.60;;;16.90;52.80;;;;;;5451381;26;20698;-65
2024/04/23 12:17:52;;;;;;;2.70;1.65;;;17.00;52.70;;;;;;5420787;26;20235;-66
2024/04/23 12:20:18;;;;;;;1.67;1.58;;;17.10;52.80;;;;;;5452004;26;20261;-65
2024/04/23 12:22:44;;;;;;;5.03;2.00;;;17.20;52.70;;;;;;5450630;26;20262;-65
2024/04/23 12:25:11;;;;;;;2.70;1.58;;;17.10;52.60;;;;;;5452013;26;20317;-64
2024/04/23 12:27:37;;;;;;;2.03;1.83;;;17.10;53.00;;;;;;5450803;26;20611;-65
2024/04/23 12:30:06;;;;;;;2.00;1.63;;;17.00;53.20;;;;;;5450615;26;20219;-64
2024/04/23 12:32:32;;;;;;;1.70;1.60;;;17.00;53.40;;;;;;5451836;26;20227;-65
2024/04/23 12:34:57;;;;;;;2.88;1.63;;;17.00;53.20;;;;;;5451261;26;20694;-65
2024/04/23 12:37:23;;;;;;;1.58;1.48;;;17.10;53.10;;;;;;5450958;26;20259;-65
2024/04/23 12:39:51;;;;;;;1.50;1.40;;;17.00;52.90;;;;;;5449534;26;20266;-65
2024/04/23 12:42:19;;;;;;;1.83;1.65;;;17.00;53.20;;;;;;5450742;26;20219;-66
2024/04/23 12:44:45;;;;;;;1.70;1.60;;;16.90;53.50;;;;;;5451281;26;20725;-65
2024/04/23 12:47:10;;;;;;;2.20;1.40;;;16.90;53.40;;;;;;5451601;26;20223;-66
2024/04/23 12:49:36;;;;;;;1.63;1.50;;;16.90;53.40;;;;;;5450810;26;20258;-65
2024/04/23 12:52:01;;;;;;;2.10;1.77;;;16.90;53.50;;;;;;5449386;26;20671;-66